Time;durP1;ratioP1;P1;durP2;ratioP2;P2;SDS_P1;SDS_P2;PMS_P1;PMS_P2;Temp;Humidity;BMP_temperature;BMP_pressure;BME280_temperature;BME280_humidity;BME280_pressure;Samples;Min_cycle;Max_cycle;Signal;HPM_P1;HPM_P2
2022/05/03 00:01:51;;;;;;;9.80;6.57;;;24.30;42.30;;;;;;6262088;27;80395;-62
2022/05/03 00:04:52;;;;;;;10.43;6.50;;;24.30;41.50;;;;;;6262126;27;81040;-62
2022/05/03 00:07:52;;;;;;;8.80;5.97;;;24.30;41.40;;;;;;6264516;27;81410;-62
2022/05/03 00:10:53;;;;;;;9.60;6.82;;;24.30;41.50;;;;;;6269656;27;80879;-62
2022/05/03 00:13:53;;;;;;;9.55;6.65;;;24.30;41.50;;;;;;6261702;27;80296;-62
2022/05/03 00:16:54;;;;;;;11.35;6.82;;;24.30;41.50;;;;;;6261817;27;80116;-62
2022/05/03 00:19:54;;;;;;;12.02;7.03;;;24.30;41.50;;;;;;6267491;27;81540;-62
2022/05/03 00:22:55;;;;;;;13.02;6.88;;;24.30;41.60;;;;;;6275413;27;80426;-61
2022/05/03 00:25:55;;;;;;;11.75;6.35;;;24.30;41.50;;;;;;6276653;27;79997;-62
2022/05/03 00:28:56;;;;;;;9.75;6.25;;;24.30;41.50;;;;;;6286640;27;80352;-62
2022/05/03 00:31:56;;;;;;;9.50;6.05;;;24.20;41.40;;;;;;6286761;27;80540;-63
2022/05/03 00:35:00;;;;;;;11.27;7.13;;;24.30;41.50;;;;;;6286508;27;80864;-62
2022/05/03 00:38:01;;;;;;;11.60;6.80;;;24.30;41.50;;;;;;6286872;27;81544;-63
2022/05/03 00:41:01;;;;;;;9.55;6.85;;;24.20;41.30;;;;;;6273625;27;80503;-63
2022/05/03 00:44:02;;;;;;;12.38;8.07;;;24.30;41.50;;;;;;6261360;27;80458;-63
2022/05/03 00:47:03;;;;;;;10.77;6.63;;;24.20;41.60;;;;;;6260982;27;80383;-62
2022/05/03 00:50:03;;;;;;;12.57;7.43;;;24.20;41.50;;;;;;6261321;27;80310;-62
2022/05/03 00:53:04;;;;;;;11.18;6.78;;;24.20;41.70;;;;;;6260934;27;80379;-61
2022/05/03 00:56:04;;;;;;;10.00;6.75;;;24.20;41.70;;;;;;6261584;27;80300;-61
2022/05/03 00:59:05;;;;;;;9.68;6.63;;;24.20;41.60;;;;;;6273312;27;80365;-62
2022/05/03 01:02:06;;;;;;;10.18;6.05;;;24.20;41.60;;;;;;6259177;27;83494;-61
2022/05/03 01:05:09;;;;;;;7.90;5.50;;;24.20;41.80;;;;;;6261047;27;80448;-62
2022/05/03 01:08:10;;;;;;;10.27;6.43;;;24.30;41.90;;;;;;6260829;27;80586;-62
2022/05/03 01:11:11;;;;;;;13.18;7.20;;;24.30;41.70;;;;;;6267531;27;80608;-61
2022/05/03 01:14:11;;;;;;;9.63;6.38;;;24.20;41.40;;;;;;6261172;27;80558;-63
2022/05/03 01:17:12;;;;;;;9.75;6.15;;;24.20;41.30;;;;;;6277651;27;80361;-61
2022/05/03 01:20:14;;;;;;;9.30;6.75;;;24.20;41.20;;;;;;6285789;27;79954;-62
2022/05/03 01:23:14;;;;;;;12.95;7.05;;;24.20;41.10;;;;;;6260160;27;80225;-62
2022/05/03 01:26:15;;;;;;;12.43;7.88;;;24.10;41.00;;;;;;6270729;27;80938;-61
2022/05/03 01:29:15;;;;;;;10.98;7.00;;;24.10;41.00;;;;;;6285398;27;80390;-62
2022/05/03 01:32:16;;;;;;;11.77;7.03;;;24.10;41.00;;;;;;6270334;27;80153;-62
2022/05/03 01:35:16;;;;;;;10.35;6.32;;;24.10;40.90;;;;;;6260432;27;80526;-63
2022/05/03 01:38:17;;;;;;;10.05;6.97;;;24.10;40.90;;;;;;6260241;27;80561;-63
2022/05/03 01:41:19;;;;;;;12.10;7.28;;;24.10;41.10;;;;;;6273352;27;80474;-63
2022/05/03 01:44:20;;;;;;;14.13;8.13;;;24.10;40.80;;;;;;6260066;27;80545;-62
2022/05/03 01:47:20;;;;;;;9.70;6.43;;;24.10;40.80;;;;;;6259622;27;80529;-63
2022/05/03 01:50:21;;;;;;;10.10;6.72;;;24.10;40.90;;;;;;6260388;27;80459;-63
2022/05/03 01:53:21;;;;;;;10.85;6.35;;;24.10;40.90;;;;;;6279271;27;80802;-63
2022/05/03 01:56:22;;;;;;;12.07;6.78;;;24.10;40.70;;;;;;6271778;27;80354;-63
2022/05/03 01:59:22;;;;;;;9.90;7.05;;;24.10;40.80;;;;;;6260073;27;80256;-63
2022/05/03 02:02:23;;;;;;;8.70;5.90;;;24.10;40.80;;;;;;6258253;27;80428;-63
2022/05/03 02:05:24;;;;;;;10.88;6.70;;;24.10;40.90;;;;;;6260014;27;80221;-62
2022/05/03 02:08:24;;;;;;;9.15;6.40;;;24.10;41.00;;;;;;6268074;27;81557;-62
2022/05/03 02:11:25;;;;;;;9.68;6.25;;;24.10;40.80;;;;;;6258950;27;81688;-62
2022/05/03 02:14:44;;;;;;;9.77;5.22;;;24.10;40.90;;;;;;6266869;27;83449;-62
2022/05/03 02:17:46;;;;;;;11.60;6.35;;;24.10;40.60;;;;;;6273198;27;80672;-62
2022/05/03 02:20:46;;;;;;;9.90;6.65;;;24.10;40.70;;;;;;6259099;27;80334;-63
2022/05/03 02:23:48;;;;;;;10.40;6.88;;;24.10;40.60;;;;;;6279741;27;80334;-62
2022/05/03 02:26:49;;;;;;;10.07;5.88;;;24.10;40.50;;;;;;6284171;27;81443;-62
2022/05/03 02:29:49;;;;;;;8.25;5.85;;;24.10;40.50;;;;;;6284021;27;80387;-63
2022/05/03 02:32:50;;;;;;;8.85;5.97;;;24.10;40.50;;;;;;6284014;27;80716;-63
2022/05/03 02:35:50;;;;;;;8.18;6.15;;;24.10;40.60;;;;;;6284368;27;80221;-62
2022/05/03 02:38:51;;;;;;;10.70;6.82;;;24.00;40.60;;;;;;6267114;27;81013;-63
2022/05/03 02:41:51;;;;;;;9.27;6.47;;;24.00;41.20;;;;;;6259159;27;81759;-63
2022/05/03 02:44:52;;;;;;;10.93;7.03;;;24.00;40.70;;;;;;6284348;27;80258;-63
2022/05/03 02:47:52;;;;;;;9.57;5.70;;;24.00;40.70;;;;;;6283744;27;80400;-63
2022/05/03 02:50:53;;;;;;;9.38;6.57;;;24.00;40.70;;;;;;6271091;27;80968;-63
2022/05/03 02:53:54;;;;;;;8.82;6.22;;;24.00;40.80;;;;;;6273531;27;81750;-63
2022/05/03 02:56:54;;;;;;;10.57;7.03;;;24.10;40.80;;;;;;6264596;27;80407;-63
2022/05/03 03:03:14;;;;;;;10.13;5.97;;;24.10;41.00;;;;;;6266466;27;80402;-63
2022/05/03 03:06:14;;;;;;;9.65;6.18;;;24.00;40.90;;;;;;6283945;27;80343;-64
2022/05/03 03:09:15;;;;;;;8.60;5.53;;;24.10;40.90;;;;;;6267771;27;80352;-63
2022/05/03 03:12:15;;;;;;;6.78;3.92;;;24.00;40.90;;;;;;6279072;27;80972;-63
2022/05/03 03:15:16;;;;;;;9.23;6.30;;;24.00;41.90;;;;;;6260401;27;81015;-64
2022/05/03 03:18:18;;;;;;;7.22;5.40;;;24.00;41.50;;;;;;6258629;27;80456;-63
2022/05/03 03:21:18;;;;;;;10.25;6.63;;;24.10;41.10;;;;;;6258180;27;80348;-63
2022/05/03 03:24:19;;;;;;;8.68;6.22;;;24.10;40.70;;;;;;6271792;27;80364;-63
2022/05/03 03:27:19;;;;;;;8.27;5.88;;;24.10;40.90;;;;;;6264158;27;80750;-63
2022/05/03 03:30:20;;;;;;;9.18;5.68;;;24.10;40.90;;;;;;6258306;27;81056;-63
2022/05/03 03:33:21;;;;;;;9.93;6.38;;;24.10;40.90;;;;;;6259675;27;81856;-63
2022/05/03 03:36:21;;;;;;;8.95;5.90;;;24.10;40.90;;;;;;6262973;27;81113;-63
2022/05/03 03:39:22;;;;;;;10.30;5.95;;;24.10;41.00;;;;;;6273889;27;80799;-63
2022/05/03 03:42:22;;;;;;;6.38;4.97;;;24.10;41.00;;;;;;6287669;27;81738;-63
2022/05/03 03:45:23;;;;;;;8.63;5.88;;;24.00;41.10;;;;;;6286790;27;80678;-63
2022/05/03 03:48:23;;;;;;;6.90;5.07;;;24.00;40.90;;;;;;6286149;27;80535;-63
2022/05/03 03:51:24;;;;;;;10.73;5.93;;;24.10;41.10;;;;;;6262201;27;80251;-63
2022/05/03 03:54:24;;;;;;;11.55;5.70;;;24.00;40.80;;;;;;6264892;27;80504;-63
2022/05/03 03:57:25;;;;;;;9.68;5.45;;;24.00;40.70;;;;;;6262157;27;80517;-63
2022/05/03 04:00:25;;;;;;;12.30;6.13;;;24.00;40.90;;;;;;6262147;27;80502;-63
2022/05/03 04:03:26;;;;;;;8.60;5.72;;;24.00;40.80;;;;;;6262401;27;80777;-62
2022/05/03 04:06:27;;;;;;;9.73;5.80;;;24.00;40.70;;;;;;6262298;27;80553;-61
2022/05/03 04:09:27;;;;;;;9.40;6.15;;;24.00;40.90;;;;;;6268585;27;80401;-61
2022/05/03 04:12:29;;;;;;;8.80;5.93;;;24.10;40.90;;;;;;6287454;27;80345;-61
2022/05/03 04:15:30;;;;;;;8.10;5.95;;;24.10;40.90;;;;;;6272058;27;80936;-61
2022/05/03 04:18:44;;;;;;;7.90;5.78;;;24.10;41.00;;;;;;6261910;27;80170;-63
2022/05/03 04:21:45;;;;;;;8.68;5.78;;;24.10;41.10;;;;;;6285993;27;81913;-64
2022/05/03 04:24:45;;;;;;;8.63;5.72;;;24.10;41.40;;;;;;6286620;27;80534;-63
2022/05/03 04:27:46;;;;;;;7.15;5.07;;;24.10;41.50;;;;;;6287395;27;81096;-63
2022/05/03 04:30:46;;;;;;;8.95;5.97;;;24.10;41.30;;;;;;6272681;27;80528;-63
2022/05/03 04:33:47;;;;;;;9.20;5.47;;;24.10;41.90;;;;;;6262686;27;80462;-62
2022/05/03 04:36:47;;;;;;;8.93;5.82;;;24.10;42.00;;;;;;6262274;27;80668;-63
2022/05/03 04:39:48;;;;;;;8.02;5.28;;;24.10;41.90;;;;;;6262305;27;81521;-62
2022/05/03 04:42:48;;;;;;;8.93;5.72;;;24.20;42.20;;;;;;6275971;27;80173;-62
2022/05/03 04:45:50;;;;;;;8.52;5.90;;;24.20;42.00;;;;;;6267075;27;80328;-61
2022/05/03 04:48:51;;;;;;;11.43;5.70;;;24.20;41.80;;;;;;6261812;27;80445;-71
2022/05/03 04:51:51;;;;;;;7.68;5.43;;;24.10;42.00;;;;;;6281725;27;80404;-65
2022/05/03 04:54:52;;;;;;;10.18;6.18;;;24.10;42.00;;;;;;6283876;27;84997;-62
2022/05/03 04:57:52;;;;;;;11.15;5.95;;;24.20;42.40;;;;;;6259925;28;79898;-62
2022/05/03 05:00:53;;;;;;;11.40;6.20;;;24.20;42.90;;;;;;6268979;27;80592;-64
2022/05/03 05:03:53;;;;;;;12.00;5.68;;;24.20;42.50;;;;;;6274248;27;80382;-61
2022/05/03 05:06:54;;;;;;;13.15;5.70;;;24.30;42.80;;;;;;6268049;27;80191;-61
2022/05/03 05:13:14;;;;;;;10.57;5.72;;;24.30;42.90;;;;;;6274716;27;80562;-62
2022/05/03 05:16:14;;;;;;;9.50;6.20;;;24.30;43.80;;;;;;6260693;27;80751;-62
2022/05/03 05:19:15;;;;;;;9.63;6.20;;;24.40;43.40;;;;;;6280205;27;81601;-62
2022/05/03 05:22:15;;;;;;;13.20;6.60;;;24.30;43.30;;;;;;6285106;27;80645;-61
2022/05/03 05:25:16;;;;;;;12.55;7.72;;;24.30;44.60;;;;;;6268246;27;80398;-62
2022/05/03 05:28:16;;;;;;;15.85;7.63;;;24.40;45.20;;;;;;6286277;27;80906;-61
2022/05/03 05:31:17;;;;;;;14.80;8.73;;;24.40;45.30;;;;;;6285932;27;80474;-61
2022/05/03 05:34:18;;;;;;;16.83;8.43;;;24.40;45.30;;;;;;6267897;27;80313;-61
2022/05/03 05:37:18;;;;;;;13.55;7.70;;;24.40;45.30;;;;;;6262277;27;80324;-63
2022/05/03 05:40:18;;;;;;;13.48;8.30;;;24.40;45.20;;;;;;6261536;27;80423;-62
2022/05/03 05:43:19;;;;;;;19.90;9.05;;;24.40;45.30;;;;;;6264437;27;80702;-62
2022/05/03 05:46:20;;;;;;;14.32;8.27;;;24.50;45.30;;;;;;6261787;27;81711;-61
2022/05/03 05:49:20;;;;;;;18.35;11.75;;;24.40;45.10;;;;;;6257683;27;83047;-62
2022/05/03 05:55:42;;;;;;;20.10;12.38;;;24.50;45.10;;;;;;6256819;27;83466;-62
2022/05/03 05:58:43;;;;;;;19.77;12.75;;;24.50;44.90;;;;;;6255140;27;84461;-62
2022/05/03 06:01:44;;;;;;;21.30;13.48;;;24.50;45.00;;;;;;6256394;27;83594;-62
2022/05/03 06:04:44;;;;;;;21.05;13.05;;;24.50;45.10;;;;;;6256431;27;82945;-62
2022/05/03 06:07:45;;;;;;;18.08;12.98;;;24.50;45.90;;;;;;6267458;27;84612;-62
2022/05/03 06:10:45;;;;;;;20.20;12.43;;;24.50;45.60;;;;;;6255939;27;83358;-62
2022/05/03 06:13:47;;;;;;;19.02;12.10;;;24.60;45.50;;;;;;6279350;27;83726;-61
2022/05/03 06:16:48;;;;;;;21.25;12.20;;;24.60;45.50;;;;;;6265191;27;82961;-63
2022/05/03 06:19:48;;;;;;;23.75;11.13;;;24.60;45.70;;;;;;6281656;27;82888;-62
2022/05/03 06:22:49;;;;;;;17.48;10.98;;;24.70;45.60;;;;;;6264776;27;84066;-63
2022/05/03 06:25:50;;;;;;;17.05;10.32;;;24.70;46.00;;;;;;6268020;27;83395;-65
2022/05/03 06:28:50;;;;;;;17.50;10.35;;;24.70;46.10;;;;;;6255840;27;83214;-67
2022/05/03 06:31:51;;;;;;;18.60;10.85;;;24.70;46.10;;;;;;6255706;27;87416;-63
2022/05/03 06:34:51;;;;;;;16.92;10.30;;;24.80;45.90;;;;;;6256369;27;83182;-63
2022/05/03 06:37:52;;;;;;;18.17;10.88;;;24.70;45.90;;;;;;6265816;27;83103;-62
2022/05/03 06:40:52;;;;;;;18.65;9.60;;;24.80;46.40;;;;;;6273356;27;83079;-63
2022/05/03 06:43:53;;;;;;;16.38;10.40;;;24.80;46.10;;;;;;6263121;27;82925;-64
2022/05/03 06:46:53;;;;;;;18.48;9.52;;;24.80;46.50;;;;;;6256066;27;82711;-64
2022/05/03 06:49:54;;;;;;;23.65;9.52;;;24.70;46.30;;;;;;6266589;27;83507;-64
2022/05/03 06:52:54;;;;;;;17.35;9.02;;;24.70;45.90;;;;;;6267355;27;81428;-66
2022/05/03 06:55:55;;;;;;;14.70;8.50;;;24.80;45.60;;;;;;6269460;27;80282;-64
2022/05/03 06:58:55;;;;;;;14.52;8.80;;;24.80;45.10;;;;;;6276874;27;80381;-65
2022/05/03 07:01:56;;;;;;;14.02;8.43;;;24.80;44.90;;;;;;6273947;27;80669;-63
2022/05/03 07:04:56;;;;;;;18.30;9.68;;;24.80;44.70;;;;;;6260210;27;80594;-63
2022/05/03 07:07:57;;;;;;;14.05;8.60;;;24.80;44.60;;;;;;6264218;27;80699;-62
2022/05/03 07:10:57;;;;;;;17.23;8.77;;;24.90;44.60;;;;;;6283667;27;80377;-63
2022/05/03 07:13:58;;;;;;;14.10;8.20;;;24.90;44.80;;;;;;6283203;27;80760;-63
2022/05/03 07:16:58;;;;;;;19.80;8.70;;;24.90;44.60;;;;;;6265504;27;80474;-68
2022/05/03 07:23:18;;;;;;;18.05;9.25;;;25.00;44.20;;;;;;6262648;27;80515;-62
2022/05/03 07:26:18;;;;;;;14.85;8.45;;;25.00;43.90;;;;;;6265547;27;80065;-62
2022/05/03 07:29:19;;;;;;;15.45;8.48;;;25.00;43.70;;;;;;6261647;27;80502;-61
2022/05/03 07:32:19;;;;;;;13.00;7.88;;;25.00;43.10;;;;;;6265234;27;80461;-69
2022/05/03 07:35:20;;;;;;;13.15;7.72;;;25.00;43.00;;;;;;6273286;27;80589;-63
2022/05/03 07:38:20;;;;;;;15.77;8.45;;;25.00;43.10;;;;;;6264555;27;80671;-62
2022/05/03 07:41:21;;;;;;;14.65;8.25;;;25.00;42.90;;;;;;6266660;27;81577;-63
2022/05/03 07:44:22;;;;;;;14.30;8.13;;;25.00;42.70;;;;;;6263161;27;80166;-62
2022/05/03 07:47:22;;;;;;;16.58;7.50;;;25.00;42.50;;;;;;6260699;27;80347;-65
2022/05/03 07:50:23;;;;;;;17.95;7.95;;;25.00;42.50;;;;;;6257917;27;80264;-70
2022/05/03 07:53:23;;;;;;;15.10;8.55;;;25.00;42.60;;;;;;6263100;27;81435;-64
2022/05/03 07:56:24;;;;;;;12.50;7.15;;;25.00;42.50;;;;;;6278289;27;80413;-65
2022/05/03 07:59:25;;;;;;;14.85;8.60;;;25.00;42.60;;;;;;6272903;27;81719;-61
2022/05/03 08:02:26;;;;;;;19.83;8.32;;;25.00;42.90;;;;;;6265972;27;80312;-62
2022/05/03 08:05:26;;;;;;;15.13;9.23;;;25.00;42.80;;;;;;6275486;27;80736;-61
2022/05/03 08:08:27;;;;;;;15.02;9.38;;;25.00;42.50;;;;;;6282813;27;80500;-61
2022/05/03 08:11:27;;;;;;;12.77;9.13;;;25.00;41.40;;;;;;6282826;27;80203;-61
2022/05/03 08:14:28;;;;;;;16.33;9.70;;;25.00;41.40;;;;;;6263702;27;80434;-62
2022/05/03 08:17:29;;;;;;;14.90;7.88;;;25.00;41.80;;;;;;6257615;27;80359;-67
2022/05/03 08:20:29;;;;;;;14.88;6.43;;;25.00;40.90;;;;;;6258365;27;80382;-61
2022/05/03 08:23:30;;;;;;;10.18;6.88;;;25.00;40.70;;;;;;6261430;27;81124;-65
2022/05/03 08:26:33;;;;;;;12.07;7.45;;;24.90;41.00;;;;;;6284707;27;80266;-63
2022/05/03 08:29:33;;;;;;;11.50;6.75;;;25.00;40.90;;;;;;6280528;27;80581;-63
2022/05/03 08:32:34;;;;;;;15.82;7.90;;;25.00;41.00;;;;;;6262554;27;80384;-63
2022/05/03 08:35:34;;;;;;;12.45;7.07;;;25.10;41.10;;;;;;6275019;27;82091;-62
2022/05/03 08:42:06;;;;;;;10.77;7.18;;;25.10;40.30;;;;;;6274593;27;80376;-60
2022/05/03 08:45:06;;;;;;;14.20;7.82;;;25.10;40.50;;;;;;6286529;27;81067;-61
2022/05/03 08:48:07;;;;;;;11.55;7.53;;;25.10;40.60;;;;;;6272808;27;80286;-64
2022/05/03 08:51:07;;;;;;;13.20;7.85;;;25.10;40.20;;;;;;6263114;27;80272;-65
2022/05/03 08:54:08;;;;;;;13.57;7.25;;;25.20;40.50;;;;;;6264252;27;81490;-66
2022/05/03 08:57:08;;;;;;;13.55;8.57;;;25.10;40.60;;;;;;6261836;27;80422;-66
2022/05/03 09:00:09;;;;;;;18.35;10.57;;;25.10;40.70;;;;;;6260179;27;81586;-68
2022/05/03 09:03:12;;;;;;;26.65;13.15;;;25.10;40.70;;;;;;6256683;27;83146;-66
2022/05/03 09:06:13;;;;;;;39.22;17.75;;;25.20;40.80;;;;;;6257828;27;83051;-67
2022/05/03 09:09:13;;;;;;;42.05;16.83;;;25.20;40.60;;;;;;6261993;27;83267;-68
2022/05/03 09:12:14;;;;;;;37.10;16.27;;;25.20;40.50;;;;;;6271161;27;83999;-67
2022/05/03 09:15:14;;;;;;;33.40;16.90;;;25.30;40.70;;;;;;6279147;27;82985;-66
2022/05/03 09:18:15;;;;;;;32.38;15.25;;;25.20;40.10;;;;;;6264716;27;82695;-66
2022/05/03 09:24:35;;;;;;;21.13;10.60;;;25.10;40.20;;;;;;6256351;27;83831;-63
2022/05/03 09:27:35;;;;;;;17.45;9.93;;;25.10;39.40;;;;;;6264439;27;83149;-63
2022/05/03 09:30:36;;;;;;;13.38;9.13;;;25.10;39.40;;;;;;6280473;27;83220;-63
2022/05/03 09:33:37;;;;;;;13.82;8.50;;;25.00;38.40;;;;;;6265779;27;80403;-62
2022/05/03 09:36:37;;;;;;;16.17;8.50;;;24.90;37.90;;;;;;6280940;27;80354;-63
2022/05/03 09:39:38;;;;;;;14.18;8.93;;;24.90;38.20;;;;;;6270333;27;80479;-62
2022/05/03 09:42:40;;;;;;;12.80;8.00;;;24.90;38.30;;;;;;6269693;27;80171;-65
2022/05/03 09:45:41;;;;;;;12.85;7.68;;;25.00;38.60;;;;;;6263892;27;82890;-64
2022/05/03 09:48:41;;;;;;;12.80;8.60;;;24.90;38.90;;;;;;6271377;27;80741;-62
2022/05/03 09:51:43;;;;;;;13.88;8.90;;;24.90;39.00;;;;;;6268454;27;81100;-69
2022/05/03 09:54:43;;;;;;;12.15;8.27;;;24.90;38.80;;;;;;6277903;27;81800;-69
2022/05/03 09:57:45;;;;;;;16.23;8.52;;;25.00;39.00;;;;;;6265984;27;80896;-66
2022/05/03 10:00:46;;;;;;;12.82;8.23;;;25.00;39.20;;;;;;6262921;27;80420;-67
2022/05/03 10:03:47;;;;;;;12.13;7.93;;;25.00;39.20;;;;;;6279321;27;80032;-63
2022/05/03 10:06:47;;;;;;;18.10;8.02;;;25.00;39.20;;;;;;6261314;27;80171;-63
2022/05/03 10:09:48;;;;;;;11.25;7.85;;;25.10;38.80;;;;;;6259493;27;80786;-64
2022/05/03 10:12:50;;;;;;;11.82;8.23;;;25.10;38.90;;;;;;6261568;27;80347;-66
2022/05/03 10:22:29;;;;;;;9.52;6.28;;;25.00;37.00;;;;;;6267488;27;80247;-63
2022/05/03 10:25:29;;;;;;;9.38;6.15;;;24.80;36.20;;;;;;6258546;27;81549;-65
2022/05/03 10:28:30;;;;;;;10.18;5.97;;;24.90;37.00;;;;;;6258807;27;80311;-65
2022/05/03 10:31:31;;;;;;;7.82;5.88;;;25.00;37.60;;;;;;6259599;27;80969;-64
2022/05/03 10:34:31;;;;;;;11.98;6.68;;;24.70;37.60;;;;;;6263864;27;80315;-64
2022/05/03 10:37:33;;;;;;;10.75;6.70;;;24.60;37.00;;;;;;6268033;27;81605;-62
2022/05/03 10:40:38;;;;;;;11.45;6.97;;;24.60;37.30;;;;;;6269923;27;80099;-64
2022/05/03 10:43:39;;;;;;;12.67;7.03;;;24.70;37.60;;;;;;6262737;27;80765;-65
2022/05/03 10:46:40;;;;;;;13.93;7.78;;;24.70;37.80;;;;;;6264038;27;80458;-63
2022/05/03 10:49:40;;;;;;;12.23;7.45;;;24.70;38.20;;;;;;6260074;27;81161;-62
2022/05/03 10:52:41;;;;;;;9.32;6.88;;;24.70;38.40;;;;;;6260699;27;83163;-63
2022/05/03 10:55:41;;;;;;;9.57;6.65;;;24.70;38.00;;;;;;6261120;27;80259;-65
2022/05/03 10:58:42;;;;;;;15.82;6.80;;;24.90;38.70;;;;;;6276673;27;80958;-64
2022/05/03 11:01:42;;;;;;;9.40;6.40;;;25.00;37.20;;;;;;6261485;27;80365;-64
2022/05/03 11:04:44;;;;;;;11.88;7.28;;;25.00;37.80;;;;;;6258823;27;80330;-62
2022/05/03 11:07:47;;;;;;;11.43;6.75;;;25.00;38.10;;;;;;6259501;27;80672;-62
2022/05/03 11:10:47;;;;;;;11.48;6.85;;;25.10;37.90;;;;;;6258508;27;81014;-66
2022/05/03 11:13:48;;;;;;;12.77;7.65;;;25.10;37.10;;;;;;6258806;27;80010;-64
2022/05/03 11:16:48;;;;;;;14.98;7.43;;;24.90;37.70;;;;;;6263278;27;80379;-63
2022/05/03 11:19:49;;;;;;;11.93;6.90;;;25.00;38.90;;;;;;6281193;27;81572;-64
2022/05/03 11:22:50;;;;;;;11.02;6.68;;;25.10;39.00;;;;;;6283980;27;80475;-63
2022/05/03 11:25:50;;;;;;;11.80;6.90;;;25.10;39.00;;;;;;6261671;27;80813;-63
2022/05/03 11:28:51;;;;;;;11.10;7.43;;;25.20;39.10;;;;;;6270900;27;87055;-62
2022/05/03 11:31:51;;;;;;;9.00;6.25;;;25.20;39.40;;;;;;6260029;27;80351;-65
2022/05/03 11:34:52;;;;;;;11.07;6.47;;;25.20;39.80;;;;;;6278749;27;80375;-65
2022/05/03 11:37:52;;;;;;;14.15;6.78;;;25.20;39.80;;;;;;6277633;27;81602;-64
2022/05/03 11:40:53;;;;;;;9.50;7.25;;;25.10;40.20;;;;;;6264039;27;80210;-67
2022/05/03 11:43:53;;;;;;;10.98;6.72;;;25.20;40.00;;;;;;6259162;27;80483;-63
2022/05/03 11:46:54;;;;;;;19.17;8.93;;;25.20;40.20;;;;;;6258084;27;80182;-65
2022/05/03 11:49:54;;;;;;;13.77;8.52;;;25.20;40.30;;;;;;6275183;27;80483;-64
2022/05/03 11:56:14;;;;;;;16.80;7.80;;;25.30;40.30;;;;;;6274155;27;80206;-70
2022/05/03 11:59:15;;;;;;;17.85;7.90;;;25.30;40.20;;;;;;6280028;27;80491;-70
2022/05/03 12:02:15;;;;;;;12.50;8.27;;;25.20;40.00;;;;;;6286576;27;81565;-66
2022/05/03 12:05:17;;;;;;;11.95;7.60;;;25.20;39.90;;;;;;6282823;27;81088;-65
2022/05/03 12:08:19;;;;;;;13.48;8.85;;;25.20;39.70;;;;;;6277421;27;80464;-65
2022/05/03 12:11:20;;;;;;;13.68;7.53;;;25.20;39.30;;;;;;6261829;27;80773;-64
2022/05/03 12:14:20;;;;;;;10.05;7.47;;;25.20;39.50;;;;;;6273248;27;81022;-65
2022/05/03 12:17:24;;;;;;;11.85;7.72;;;25.30;39.90;;;;;;6278388;27;80955;-64
2022/05/03 12:20:25;;;;;;;9.60;7.03;;;25.30;39.50;;;;;;6265746;27;80499;-64
2022/05/03 12:23:25;;;;;;;17.77;7.22;;;25.30;39.40;;;;;;6271129;27;83224;-64
2022/05/03 12:26:26;;;;;;;10.00;6.93;;;25.30;39.80;;;;;;6268561;27;81734;-63
2022/05/03 12:29:26;;;;;;;14.60;7.78;;;25.30;40.60;;;;;;6266584;27;81133;-63
2022/05/03 12:32:27;;;;;;;12.35;6.95;;;25.40;41.20;;;;;;6272283;27;80453;-68
2022/05/03 12:35:27;;;;;;;22.88;7.88;;;25.40;41.80;;;;;;6269257;27;80336;-66
2022/05/03 12:38:28;;;;;;;11.48;8.13;;;25.50;42.40;;;;;;6273204;27;80545;-66
2022/05/03 12:41:29;;;;;;;12.48;7.72;;;25.50;41.60;;;;;;6264639;27;80937;-66
2022/05/03 12:44:29;;;;;;;15.63;8.18;;;25.50;41.20;;;;;;6262969;27;80314;-65
2022/05/03 12:47:30;;;;;;;15.05;7.95;;;25.50;41.20;;;;;;6274142;27;82062;-66
2022/05/03 12:50:31;;;;;;;13.63;7.70;;;25.60;41.10;;;;;;6269297;27;80784;-65
2022/05/03 12:53:31;;;;;;;12.15;7.25;;;25.60;40.90;;;;;;6266409;27;80589;-65
2022/05/03 12:59:51;;;;;;;9.50;6.78;;;25.60;40.40;;;;;;6263162;27;81123;-66
2022/05/03 13:02:52;;;;;;;11.88;7.50;;;25.60;40.70;;;;;;6260670;27;81365;-67
2022/05/03 13:05:54;;;;;;;14.13;7.00;;;25.60;40.80;;;;;;6261450;27;80452;-66
2022/05/03 13:08:54;;;;;;;12.07;7.35;;;25.60;40.70;;;;;;6266450;27;80539;-67
2022/05/03 13:11:55;;;;;;;11.77;7.05;;;25.60;40.70;;;;;;6263602;27;80338;-66
2022/05/03 13:14:56;;;;;;;9.63;6.63;;;25.70;40.60;;;;;;6259730;27;81030;-72
2022/05/03 13:17:57;;;;;;;10.82;7.18;;;25.60;40.70;;;;;;6261116;27;80377;-65
2022/05/03 13:20:57;;;;;;;12.18;7.15;;;25.60;40.30;;;;;;6260549;27;81026;-66
2022/05/03 13:23:58;;;;;;;10.27;6.82;;;25.60;40.30;;;;;;6284561;27;80415;-67
2022/05/03 13:26:58;;;;;;;9.23;6.75;;;25.60;40.30;;;;;;6267199;27;80693;-68
2022/05/03 13:29:59;;;;;;;10.65;6.35;;;25.60;40.00;;;;;;6267553;27;81463;-67
2022/05/03 13:32:59;;;;;;;10.88;6.00;;;25.60;40.30;;;;;;6261849;27;80430;-64
2022/05/03 13:42:40;;;;;;;10.13;6.63;;;25.70;40.00;;;;;;6271107;27;80947;-63
2022/05/03 13:45:40;;;;;;;12.05;6.82;;;25.60;40.10;;;;;;6260223;27;80465;-69
2022/05/03 13:48:41;;;;;;;10.98;6.40;;;25.70;40.20;;;;;;6260194;27;80529;-65
2022/05/03 13:51:41;;;;;;;11.35;6.20;;;25.70;40.40;;;;;;6263469;27;81985;-64
2022/05/03 13:54:42;;;;;;;9.13;6.15;;;25.70;40.40;;;;;;6259455;27;80393;-64
2022/05/03 13:57:42;;;;;;;8.80;5.78;;;25.60;40.20;;;;;;6278972;27;80178;-64
2022/05/03 14:00:43;;;;;;;13.18;6.13;;;25.60;39.90;;;;;;6283026;27;80170;-64
2022/05/03 14:03:44;;;;;;;13.57;5.75;;;25.60;40.00;;;;;;6267366;27;80517;-63
2022/05/03 14:06:45;;;;;;;11.65;6.13;;;25.50;39.90;;;;;;6281784;27;80360;-62
2022/05/03 14:09:45;;;;;;;15.77;5.93;;;25.50;39.40;;;;;;6268433;27;80700;-63
2022/05/03 14:12:46;;;;;;;9.18;5.88;;;25.40;39.50;;;;;;6270932;27;80710;-63
2022/05/03 14:15:46;;;;;;;10.95;6.60;;;25.40;39.30;;;;;;6259315;27;80633;-63
2022/05/03 14:18:47;;;;;;;8.02;6.03;;;25.30;39.40;;;;;;6262972;27;80566;-63
2022/05/03 14:21:50;;;;;;;9.45;5.65;;;25.10;39.60;;;;;;6259427;27;80434;-65
2022/05/03 14:24:51;;;;;;;9.45;6.07;;;25.10;39.80;;;;;;6259580;27;80495;-63
2022/05/03 14:27:51;;;;;;;6.38;5.05;;;25.10;39.70;;;;;;6269477;27;80696;-63
2022/05/03 14:30:52;;;;;;;8.05;5.38;;;25.00;39.80;;;;;;6259774;27;80155;-65
2022/05/03 14:33:52;;;;;;;7.20;5.57;;;25.00;39.80;;;;;;6281241;27;80646;-64
2022/05/03 14:36:53;;;;;;;7.80;5.25;;;25.00;40.00;;;;;;6278590;27;79906;-64
2022/05/03 14:39:53;;;;;;;6.57;5.20;;;25.00;39.80;;;;;;6260295;27;80279;-64
2022/05/03 14:42:54;;;;;;;8.50;5.28;;;25.00;40.00;;;;;;6258999;27;80072;-63
2022/05/03 14:45:54;;;;;;;7.53;5.47;;;25.00;40.20;;;;;;6261778;27;82546;-64
2022/05/03 14:48:55;;;;;;;11.27;6.32;;;25.00;40.50;;;;;;6258866;27;82078;-63
2022/05/03 14:51:58;;;;;;;9.05;5.55;;;25.00;41.10;;;;;;6259737;27;80268;-65
2022/05/03 14:54:59;;;;;;;7.75;5.75;;;25.00;41.70;;;;;;6259282;27;81158;-64
2022/05/03 15:04:37;;;;;;;7.70;5.13;;;25.00;42.90;;;;;;6282796;27;80460;-62
2022/05/03 15:07:38;;;;;;;15.00;6.57;;;25.00;43.20;;;;;;6271279;27;80382;-63
2022/05/03 15:10:38;;;;;;;11.38;6.13;;;25.00;43.00;;;;;;6257914;27;80629;-63
2022/05/03 15:13:39;;;;;;;9.13;5.43;;;25.00;43.10;;;;;;6258633;27;80752;-65
2022/05/03 15:16:39;;;;;;;9.80;6.15;;;24.90;42.90;;;;;;6258784;27;80677;-65
2022/05/03 15:19:40;;;;;;;15.25;7.10;;;25.00;42.90;;;;;;6258518;27;80332;-62
2022/05/03 15:26:01;;;;;;;9.82;6.70;;;25.00;42.70;;;;;;6282094;27;85106;-65
2022/05/03 15:29:01;;;;;;;8.68;5.85;;;25.00;42.70;;;;;;6258580;27;80542;-64
2022/05/03 15:32:02;;;;;;;9.52;5.70;;;25.10;42.70;;;;;;6274544;27;81587;-63
2022/05/03 15:35:02;;;;;;;10.63;6.45;;;25.10;43.60;;;;;;6274131;27;80695;-64
2022/05/03 15:38:03;;;;;;;13.52;6.10;;;25.10;44.50;;;;;;6258613;27;80414;-65
2022/05/03 15:41:04;;;;;;;11.18;5.72;;;25.10;45.20;;;;;;6280541;27;80381;-63
2022/05/03 15:44:04;;;;;;;13.18;6.30;;;25.10;45.00;;;;;;6282870;27;80473;-62
2022/05/03 15:47:05;;;;;;;14.20;7.10;;;25.20;45.00;;;;;;6283371;27;80222;-63
2022/05/03 15:50:05;;;;;;;12.13;6.05;;;25.20;45.10;;;;;;6262902;27;80543;-62
2022/05/03 15:53:06;;;;;;;12.30;5.60;;;25.20;45.00;;;;;;6271615;27;80998;-63
2022/05/03 15:56:06;;;;;;;10.98;6.43;;;25.20;44.90;;;;;;6282006;27;80403;-62
2022/05/03 15:59:07;;;;;;;9.38;5.40;;;25.20;44.80;;;;;;6264766;27;82005;-61
2022/05/03 16:02:07;;;;;;;9.43;5.95;;;25.30;44.70;;;;;;6258154;27;80406;-64
2022/05/03 16:05:09;;;;;;;8.55;5.55;;;25.20;46.10;;;;;;6257672;27;81266;-66
2022/05/03 16:08:09;;;;;;;7.82;5.43;;;25.20;46.00;;;;;;6256940;27;81694;-65
2022/05/03 16:11:10;;;;;;;8.20;5.07;;;25.20;46.10;;;;;;6266575;27;80562;-65
2022/05/03 16:14:11;;;;;;;10.98;5.43;;;25.20;45.60;;;;;;6281751;27;80678;-67
2022/05/03 16:17:11;;;;;;;8.90;5.25;;;25.10;46.10;;;;;;6275725;27;80463;-66
2022/05/03 16:20:12;;;;;;;8.15;4.80;;;25.20;46.30;;;;;;6256370;27;80404;-65